sensor_id;sensor_type;location;lat;lon;timestamp;temperature;humidity
3614;DHT22;1821;50.936;6.854;2023-08-17T00:00:27;19.60;1.00
3614;DHT22;1821;50.936;6.854;2023-08-17T00:01:09;19.80;1.00
3614;DHT22;1821;50.936;6.854;2023-08-17T00:01:51;19.70;1.00
3614;DHT22;1821;50.936;6.854;2023-08-17T00:02:33;19.60;1.00
3614;DHT22;1821;50.936;6.854;2023-08-17T00:03:15;19.50;1.00
3614;DHT22;1821;50.936;6.854;2023-08-17T00:03:57;19.50;1.00
3614;DHT22;1821;50.936;6.854;2023-08-17T00:04:40;19.70;1.00
3614;DHT22;1821;50.936;6.854;2023-08-17T00:05:22;19.70;1.00
3614;DHT22;1821;50.936;6.854;2023-08-17T00:06:03;19.50;1.00
3614;DHT22;1821;50.936;6.854;2023-08-17T00:06:48;19.60;1.00
3614;DHT22;1821;50.936;6.854;2023-08-17T00:07:30;19.50;1.00
3614;DHT22;1821;50.936;6.854;2023-08-17T00:08:12;19.60;1.00
3614;DHT22;1821;50.936;6.854;2023-08-17T00:08:54;19.50;1.00
3614;DHT22;1821;50.936;6.854;2023-08-17T00:09:35;19.60;1.00
3614;DHT22;1821;50.936;6.854;2023-08-17T00:10:18;19.50;1.00
3614;DHT22;1821;50.936;6.854;2023-08-17T00:10:59;19.40;1.00
3614;DHT22;1821;50.936;6.854;2023-08-17T00:11:44;19.50;1.00
3614;DHT22;1821;50.936;6.854;2023-08-17T00:12:26;19.50;1.00
3614;DHT22;1821;50.936;6.854;2023-08-17T00:13:08;19.60;1.00
3614;DHT22;1821;50.936;6.854;2023-08-17T00:13:50;19.50;1.00
3614;DHT22;1821;50.936;6.854;2023-08-17T00:14:35;19.50;1.00
3614;DHT22;1821;50.936;6.854;2023-08-17T00:15:17;19.50;1.00
3614;DHT22;1821;50.936;6.854;2023-08-17T00:15:59;19.50;1.00
3614;DHT22;1821;50.936;6.854;2023-08-17T00:16:41;19.50;1.00
3614;DHT22;1821;50.936;6.854;2023-08-17T00:17:23;19.50;1.00
3614;DHT22;1821;50.936;6.854;2023-08-17T00:18:05;19.50;1.00
3614;DHT22;1821;50.936;6.854;2023-08-17T00:18:47;19.50;1.00
3614;DHT22;1821;50.936;6.854;2023-08-17T00:19:30;19.50;1.00
3614;DHT22;1821;50.936;6.854;2023-08-17T00:20:12;19.30;69.20
3614;DHT22;1821;50.936;6.854;2023-08-17T00:20:54;19.50;83.80
3614;DHT22;1821;50.936;6.854;2023-08-17T00:21:36;19.60;1.00
3614;DHT22;1821;50.936;6.854;2023-08-17T00:22:18;19.60;1.00
3614;DHT22;1821;50.936;6.854;2023-08-17T00:23:00;19.50;1.00
3614;DHT22;1821;50.936;6.854;2023-08-17T00:23:42;19.50;1.00
3614;DHT22;1821;50.936;6.854;2023-08-17T00:24:25;19.50;1.00
3614;DHT22;1821;50.936;6.854;2023-08-17T00:25:07;19.50;1.00
3614;DHT22;1821;50.936;6.854;2023-08-17T00:25:49;19.50;1.00
3614;DHT22;1821;50.936;6.854;2023-08-17T00:26:31;19.60;18.40
3614;DHT22;1821;50.936;6.854;2023-08-17T00:27:13;19.50;35.80
3614;DHT22;1821;50.936;6.854;2023-08-17T00:27:55;19.60;24.20
3614;DHT22;1821;50.936;6.854;2023-08-17T00:28:37;19.50;35.10
3614;DHT22;1821;50.936;6.854;2023-08-17T00:29:19;19.50;99.90
3614;DHT22;1821;50.936;6.854;2023-08-17T00:30:01;19.50;99.90
3614;DHT22;1821;50.936;6.854;2023-08-17T00:30:43;19.30;84.40
3614;DHT22;1821;50.936;6.854;2023-08-17T00:31:26;19.50;99.90
3614;DHT22;1821;50.936;6.854;2023-08-17T00:32:08;19.20;1.00
3614;DHT22;1821;50.936;6.854;2023-08-17T00:32:50;19.40;1.00
3614;DHT22;1821;50.936;6.854;2023-08-17T00:33:32;19.30;1.00
3614;DHT22;1821;50.936;6.854;2023-08-17T00:34:14;19.30;1.00
3614;DHT22;1821;50.936;6.854;2023-08-17T00:34:56;19.40;7.80
3614;DHT22;1821;50.936;6.854;2023-08-17T00:35:38;19.20;1.00
3614;DHT22;1821;50.936;6.854;2023-08-17T00:36:20;19.40;1.00
3614;DHT22;1821;50.936;6.854;2023-08-17T00:37:05;19.30;1.00
3614;DHT22;1821;50.936;6.854;2023-08-17T00:37:47;19.50;1.00
3614;DHT22;1821;50.936;6.854;2023-08-17T00:38:29;19.40;1.00
3614;DHT22;1821;50.936;6.854;2023-08-17T00:39:11;19.40;2.10
3614;DHT22;1821;50.936;6.854;2023-08-17T00:39:53;19.40;8.20
3614;DHT22;1821;50.936;6.854;2023-08-17T00:40:35;19.40;5.10
3614;DHT22;1821;50.936;6.854;2023-08-17T00:41:17;19.50;1.00
3614;DHT22;1821;50.936;6.854;2023-08-17T00:41:59;19.40;1.00
3614;DHT22;1821;50.936;6.854;2023-08-17T00:42:41;19.40;1.00
3614;DHT22;1821;50.936;6.854;2023-08-17T00:43:23;19.40;1.00
3614;DHT22;1821;50.936;6.854;2023-08-17T00:44:05;19.40;1.00
3614;DHT22;1821;50.936;6.854;2023-08-17T00:44:47;19.30;1.00
3614;DHT22;1821;50.936;6.854;2023-08-17T00:45:29;19.40;1.00
3614;DHT22;1821;50.936;6.854;2023-08-17T00:46:11;19.40;21.10
3614;DHT22;1821;50.936;6.854;2023-08-17T00:46:54;19.40;1.00
3614;DHT22;1821;50.936;6.854;2023-08-17T00:47:37;19.30;1.00
3614;DHT22;1821;50.936;6.854;2023-08-17T00:48:19;19.30;1.00
3614;DHT22;1821;50.936;6.854;2023-08-17T00:49:05;19.20;3.40
3614;DHT22;1821;50.936;6.854;2023-08-17T00:49:47;19.40;1.00
3614;DHT22;1821;50.936;6.854;2023-08-17T00:50:29;19.30;1.00
3614;DHT22;1821;50.936;6.854;2023-08-17T00:51:11;19.40;1.00
3614;DHT22;1821;50.936;6.854;2023-08-17T00:51:53;19.40;1.00
3614;DHT22;1821;50.936;6.854;2023-08-17T00:52:35;19.40;1.00
3614;DHT22;1821;50.936;6.854;2023-08-17T00:53:17;19.20;1.00
3614;DHT22;1821;50.936;6.854;2023-08-17T00:54:01;19.30;1.00
3614;DHT22;1821;50.936;6.854;2023-08-17T00:54:43;19.30;1.00
3614;DHT22;1821;50.936;6.854;2023-08-17T00:55:26;19.30;1.00
3614;DHT22;1821;50.936;6.854;2023-08-17T00:56:08;19.30;1.00
3614;DHT22;1821;50.936;6.854;2023-08-17T00:56:51;19.30;1.00
3614;DHT22;1821;50.936;6.854;2023-08-17T00:57:36;19.20;1.00
3614;DHT22;1821;50.936;6.854;2023-08-17T00:58:19;19.30;1.00
3614;DHT22;1821;50.936;6.854;2023-08-17T00:59:01;19.20;1.00
3614;DHT22;1821;50.936;6.854;2023-08-17T00:59:44;19.30;1.00
3614;DHT22;1821;50.936;6.854;2023-08-17T01:00:40;19.30;1.00
3614;DHT22;1821;50.936;6.854;2023-08-17T01:01:22;19.30;1.00
3614;DHT22;1821;50.936;6.854;2023-08-17T01:02:04;19.30;1.00
3614;DHT22;1821;50.936;6.854;2023-08-17T01:02:49;19.20;1.00
3614;DHT22;1821;50.936;6.854;2023-08-17T01:03:32;19.20;1.00
3614;DHT22;1821;50.936;6.854;2023-08-17T01:04:16;19.20;1.00
3614;DHT22;1821;50.936;6.854;2023-08-17T01:04:58;19.20;1.00
3614;DHT22;1821;50.936;6.854;2023-08-17T01:05:40;19.40;1.00
3614;DHT22;1821;50.936;6.854;2023-08-17T01:06:22;19.20;1.00
3614;DHT22;1821;50.936;6.854;2023-08-17T01:07:04;19.20;1.00
3614;DHT22;1821;50.936;6.854;2023-08-17T01:07:46;19.20;1.00
3614;DHT22;1821;50.936;6.854;2023-08-17T01:08:29;19.20;1.00
3614;DHT22;1821;50.936;6.854;2023-08-17T01:09:11;19.30;1.00
3614;DHT22;1821;50.936;6.854;2023-08-17T01:09:53;19.20;1.00
3614;DHT22;1821;50.936;6.854;2023-08-17T01:13:10;19.10;1.00
3614;DHT22;1821;50.936;6.854;2023-08-17T01:14:53;19.00;1.00
3614;DHT22;1821;50.936;6.854;2023-08-17T01:15:40;19.20;1.00
3614;DHT22;1821;50.936;6.854;2023-08-17T01:16:35;19.10;1.00
3614;DHT22;1821;50.936;6.854;2023-08-17T01:17:26;19.10;1.00
3614;DHT22;1821;50.936;6.854;2023-08-17T01:18:28;19.10;1.00
3614;DHT22;1821;50.936;6.854;2023-08-17T01:19:13;19.10;1.00
3614;DHT22;1821;50.936;6.854;2023-08-17T01:20:02;19.00;1.00
3614;DHT22;1821;50.936;6.854;2023-08-17T01:20:46;19.00;1.00
3614;DHT22;1821;50.936;6.854;2023-08-17T01:21:41;19.20;1.00
3614;DHT22;1821;50.936;6.854;2023-08-17T01:22:24;19.00;1.00
3614;DHT22;1821;50.936;6.854;2023-08-17T01:23:10;18.80;1.00
3614;DHT22;1821;50.936;6.854;2023-08-17T01:23:52;19.00;1.00
3614;DHT22;1821;50.936;6.854;2023-08-17T01:24:34;19.00;1.00
3614;DHT22;1821;50.936;6.854;2023-08-17T01:25:16;18.90;1.00
3614;DHT22;1821;50.936;6.854;2023-08-17T01:25:58;19.00;1.00
3614;DHT22;1821;50.936;6.854;2023-08-17T01:26:40;19.00;1.00
3614;DHT22;1821;50.936;6.854;2023-08-17T01:27:22;19.00;1.00
3614;DHT22;1821;50.936;6.854;2023-08-17T01:28:47;18.90;1.00
3614;DHT22;1821;50.936;6.854;2023-08-17T01:30:03;18.80;1.00
3614;DHT22;1821;50.936;6.854;2023-08-17T01:31:14;18.90;1.00
3614;DHT22;1821;50.936;6.854;2023-08-17T01:33:43;18.80;1.00
3614;DHT22;1821;50.936;6.854;2023-08-17T01:34:24;18.90;1.00
3614;DHT22;1821;50.936;6.854;2023-08-17T01:36:46;19.00;1.00
3614;DHT22;1821;50.936;6.854;2023-08-17T01:37:31;19.00;1.00
3614;DHT22;1821;50.936;6.854;2023-08-17T01:38:18;18.90;1.00
3614;DHT22;1821;50.936;6.854;2023-08-17T01:39:04;18.90;1.00
3614;DHT22;1821;50.936;6.854;2023-08-17T01:39:50;19.00;1.00
3614;DHT22;1821;50.936;6.854;2023-08-17T01:40:34;18.90;1.00
3614;DHT22;1821;50.936;6.854;2023-08-17T01:41:16;18.90;1.00
3614;DHT22;1821;50.936;6.854;2023-08-17T01:41:59;18.90;1.00
3614;DHT22;1821;50.936;6.854;2023-08-17T01:42:42;18.90;1.00
3614;DHT22;1821;50.936;6.854;2023-08-17T01:43:26;18.80;1.00
3614;DHT22;1821;50.936;6.854;2023-08-17T01:44:08;18.90;1.00
3614;DHT22;1821;50.936;6.854;2023-08-17T01:44:50;18.90;1.00
3614;DHT22;1821;50.936;6.854;2023-08-17T01:45:32;18.90;1.00
3614;DHT22;1821;50.936;6.854;2023-08-17T01:46:16;19.00;1.00
3614;DHT22;1821;50.936;6.854;2023-08-17T01:46:59;18.90;1.00
3614;DHT22;1821;50.936;6.854;2023-08-17T01:47:41;18.90;1.00
3614;DHT22;1821;50.936;6.854;2023-08-17T01:48:23;18.90;1.00
3614;DHT22;1821;50.936;6.854;2023-08-17T01:49:05;18.90;1.00
3614;DHT22;1821;50.936;6.854;2023-08-17T01:49:47;18.90;1.00
3614;DHT22;1821;50.936;6.854;2023-08-17T01:50:29;18.90;1.00
3614;DHT22;1821;50.936;6.854;2023-08-17T01:51:15;18.90;1.00
3614;DHT22;1821;50.936;6.854;2023-08-17T01:52:00;18.90;1.00
3614;DHT22;1821;50.936;6.854;2023-08-17T01:52:42;18.90;1.00
3614;DHT22;1821;50.936;6.854;2023-08-17T01:53:24;18.80;1.00
3614;DHT22;1821;50.936;6.854;2023-08-17T01:54:06;18.90;1.00
3614;DHT22;1821;50.936;6.854;2023-08-17T01:54:48;18.90;1.00
3614;DHT22;1821;50.936;6.854;2023-08-17T01:55:30;18.90;1.00
3614;DHT22;1821;50.936;6.854;2023-08-17T01:56:13;18.80;1.00
3614;DHT22;1821;50.936;6.854;2023-08-17T01:56:55;18.90;1.00
3614;DHT22;1821;50.936;6.854;2023-08-17T01:57:37;18.90;1.00
3614;DHT22;1821;50.936;6.854;2023-08-17T01:58:19;18.90;1.00
3614;DHT22;1821;50.936;6.854;2023-08-17T01:59:01;18.80;1.00
3614;DHT22;1821;50.936;6.854;2023-08-17T01:59:43;18.90;1.00
3614;DHT22;1821;50.936;6.854;2023-08-17T02:00:25;18.90;1.00
3614;DHT22;1821;50.936;6.854;2023-08-17T02:01:07;18.90;1.00
3614;DHT22;1821;50.936;6.854;2023-08-17T02:01:49;18.90;1.00
3614;DHT22;1821;50.936;6.854;2023-08-17T02:02:31;18.80;1.00
3614;DHT22;1821;50.936;6.854;2023-08-17T02:03:13;19.00;1.00
3614;DHT22;1821;50.936;6.854;2023-08-17T02:03:55;18.90;1.00
3614;DHT22;1821;50.936;6.854;2023-08-17T02:04:37;18.80;1.00
3614;DHT22;1821;50.936;6.854;2023-08-17T02:05:19;18.80;1.00
3614;DHT22;1821;50.936;6.854;2023-08-17T02:06:01;18.90;1.00
3614;DHT22;1821;50.936;6.854;2023-08-17T02:06:43;18.80;1.00
3614;DHT22;1821;50.936;6.854;2023-08-17T02:07:25;18.90;1.00
3614;DHT22;1821;50.936;6.854;2023-08-17T02:08:08;18.90;1.00
3614;DHT22;1821;50.936;6.854;2023-08-17T02:08:51;19.00;1.00
3614;DHT22;1821;50.936;6.854;2023-08-17T02:09:33;19.00;1.00
3614;DHT22;1821;50.936;6.854;2023-08-17T02:10:15;19.00;1.00
3614;DHT22;1821;50.936;6.854;2023-08-17T02:10:57;19.00;1.00
3614;DHT22;1821;50.936;6.854;2023-08-17T02:11:39;18.90;1.00
3614;DHT22;1821;50.936;6.854;2023-08-17T02:12:21;19.00;1.00
3614;DHT22;1821;50.936;6.854;2023-08-17T02:13:03;19.10;1.00
3614;DHT22;1821;50.936;6.854;2023-08-17T02:13:58;19.00;1.00
3614;DHT22;1821;50.936;6.854;2023-08-17T02:14:40;18.80;1.00
3614;DHT22;1821;50.936;6.854;2023-08-17T02:15:22;19.00;1.00
3614;DHT22;1821;50.936;6.854;2023-08-17T02:16:05;19.00;1.00
3614;DHT22;1821;50.936;6.854;2023-08-17T02:16:47;18.90;1.00
3614;DHT22;1821;50.936;6.854;2023-08-17T02:17:29;18.90;1.00
3614;DHT22;1821;50.936;6.854;2023-08-17T02:18:11;18.80;1.00
3614;DHT22;1821;50.936;6.854;2023-08-17T02:18:53;18.90;1.00
3614;DHT22;1821;50.936;6.854;2023-08-17T02:19:35;18.90;1.00
3614;DHT22;1821;50.936;6.854;2023-08-17T02:20:17;18.90;1.00
3614;DHT22;1821;50.936;6.854;2023-08-17T02:20:59;18.90;1.00
3614;DHT22;1821;50.936;6.854;2023-08-17T02:21:41;18.90;1.00
3614;DHT22;1821;50.936;6.854;2023-08-17T02:22:23;18.90;1.00
3614;DHT22;1821;50.936;6.854;2023-08-17T02:23:05;18.90;1.00
3614;DHT22;1821;50.936;6.854;2023-08-17T02:23:47;18.90;1.00
3614;DHT22;1821;50.936;6.854;2023-08-17T02:24:29;18.90;1.00
3614;DHT22;1821;50.936;6.854;2023-08-17T02:25:11;18.90;1.00
3614;DHT22;1821;50.936;6.854;2023-08-17T02:25:55;18.90;1.00
3614;DHT22;1821;50.936;6.854;2023-08-17T02:26:37;18.90;1.00
3614;DHT22;1821;50.936;6.854;2023-08-17T02:27:20;18.90;1.00
3614;DHT22;1821;50.936;6.854;2023-08-17T02:28:05;18.90;1.00
3614;DHT22;1821;50.936;6.854;2023-08-17T02:28:47;19.00;1.00
3614;DHT22;1821;50.936;6.854;2023-08-17T02:29:29;19.00;1.00
3614;DHT22;1821;50.936;6.854;2023-08-17T02:30:11;19.00;1.00
3614;DHT22;1821;50.936;6.854;2023-08-17T02:30:57;19.00;1.00
3614;DHT22;1821;50.936;6.854;2023-08-17T02:31:42;18.90;1.00
3614;DHT22;1821;50.936;6.854;2023-08-17T02:32:24;18.80;1.00
3614;DHT22;1821;50.936;6.854;2023-08-17T02:33:06;18.90;1.00
3614;DHT22;1821;50.936;6.854;2023-08-17T02:33:48;18.90;1.00
3614;DHT22;1821;50.936;6.854;2023-08-17T02:34:30;19.00;1.00
3614;DHT22;1821;50.936;6.854;2023-08-17T02:35:12;18.90;1.00
3614;DHT22;1821;50.936;6.854;2023-08-17T02:35:54;18.90;1.00
3614;DHT22;1821;50.936;6.854;2023-08-17T02:36:36;18.90;1.00
3614;DHT22;1821;50.936;6.854;2023-08-17T02:37:20;18.90;1.00
3614;DHT22;1821;50.936;6.854;2023-08-17T02:38:02;18.90;1.00
3614;DHT22;1821;50.936;6.854;2023-08-17T02:38:44;19.70;1.00
3614;DHT22;1821;50.936;6.854;2023-08-17T02:39:26;19.00;1.00
3614;DHT22;1821;50.936;6.854;2023-08-17T02:40:08;19.00;1.00
3614;DHT22;1821;50.936;6.854;2023-08-17T02:40:53;19.00;1.00
3614;DHT22;1821;50.936;6.854;2023-08-17T02:41:35;19.00;1.00
3614;DHT22;1821;50.936;6.854;2023-08-17T02:42:19;19.00;1.00
3614;DHT22;1821;50.936;6.854;2023-08-17T02:43:01;19.10;1.00
3614;DHT22;1821;50.936;6.854;2023-08-17T02:43:44;19.10;1.00
3614;DHT22;1821;50.936;6.854;2023-08-17T02:44:27;18.90;1.00
3614;DHT22;1821;50.936;6.854;2023-08-17T02:45:10;19.00;1.00
3614;DHT22;1821;50.936;6.854;2023-08-17T02:45:54;19.00;1.00
3614;DHT22;1821;50.936;6.854;2023-08-17T02:46:36;19.00;1.00
3614;DHT22;1821;50.936;6.854;2023-08-17T02:47:18;19.10;1.00
3614;DHT22;1821;50.936;6.854;2023-08-17T02:48:02;19.00;1.00
3614;DHT22;1821;50.936;6.854;2023-08-17T02:48:44;19.50;1.00
3614;DHT22;1821;50.936;6.854;2023-08-17T02:49:26;19.10;1.00
3614;DHT22;1821;50.936;6.854;2023-08-17T02:50:09;19.00;1.00
3614;DHT22;1821;50.936;6.854;2023-08-17T02:50:51;19.00;1.00
3614;DHT22;1821;50.936;6.854;2023-08-17T02:51:33;18.70;1.00
3614;DHT22;1821;50.936;6.854;2023-08-17T02:52:15;18.80;1.00
3614;DHT22;1821;50.936;6.854;2023-08-17T02:52:57;18.80;1.00
3614;DHT22;1821;50.936;6.854;2023-08-17T02:53:41;18.80;1.00
3614;DHT22;1821;50.936;6.854;2023-08-17T02:54:23;18.80;1.00
3614;DHT22;1821;50.936;6.854;2023-08-17T02:55:05;18.90;1.00
3614;DHT22;1821;50.936;6.854;2023-08-17T02:55:47;18.90;1.00
3614;DHT22;1821;50.936;6.854;2023-08-17T02:56:29;18.90;1.00
3614;DHT22;1821;50.936;6.854;2023-08-17T02:57:13;19.00;1.00
3614;DHT22;1821;50.936;6.854;2023-08-17T02:57:55;18.90;1.00
3614;DHT22;1821;50.936;6.854;2023-08-17T02:58:40;18.90;1.00
3614;DHT22;1821;50.936;6.854;2023-08-17T02:59:22;19.00;1.00
3614;DHT22;1821;50.936;6.854;2023-08-17T03:00:04;19.10;1.00
3614;DHT22;1821;50.936;6.854;2023-08-17T03:00:47;19.00;1.00
3614;DHT22;1821;50.936;6.854;2023-08-17T03:01:31;18.90;1.00
3614;DHT22;1821;50.936;6.854;2023-08-17T03:02:13;18.80;1.00
3614;DHT22;1821;50.936;6.854;2023-08-17T03:02:55;18.90;1.00
3614;DHT22;1821;50.936;6.854;2023-08-17T03:03:37;18.90;1.00
3614;DHT22;1821;50.936;6.854;2023-08-17T03:04:19;18.90;1.00
3614;DHT22;1821;50.936;6.854;2023-08-17T03:05:02;18.90;1.00
3614;DHT22;1821;50.936;6.854;2023-08-17T03:05:44;18.80;1.00
3614;DHT22;1821;50.936;6.854;2023-08-17T03:06:26;18.90;1.00
3614;DHT22;1821;50.936;6.854;2023-08-17T03:07:08;18.90;1.00
3614;DHT22;1821;50.936;6.854;2023-08-17T03:07:50;18.90;1.00
3614;DHT22;1821;50.936;6.854;2023-08-17T03:08:32;18.90;1.00
3614;DHT22;1821;50.936;6.854;2023-08-17T03:09:14;18.90;1.00
3614;DHT22;1821;50.936;6.854;2023-08-17T03:09:56;18.90;1.00
3614;DHT22;1821;50.936;6.854;2023-08-17T03:10:38;18.90;1.00
3614;DHT22;1821;50.936;6.854;2023-08-17T03:11:21;19.00;1.00
3614;DHT22;1821;50.936;6.854;2023-08-17T03:12:03;19.00;1.00
3614;DHT22;1821;50.936;6.854;2023-08-17T03:12:45;18.90;1.00
3614;DHT22;1821;50.936;6.854;2023-08-17T03:13:27;19.00;1.00
3614;DHT22;1821;50.936;6.854;2023-08-17T03:14:09;19.00;1.00
3614;DHT22;1821;50.936;6.854;2023-08-17T03:14:51;19.00;1.00
3614;DHT22;1821;50.936;6.854;2023-08-17T03:15:33;19.00;1.00
3614;DHT22;1821;50.936;6.854;2023-08-17T03:16:17;19.00;1.00
3614;DHT22;1821;50.936;6.854;2023-08-17T03:16:59;19.00;1.00
3614;DHT22;1821;50.936;6.854;2023-08-17T03:17:41;19.00;1.00
3614;DHT22;1821;50.936;6.854;2023-08-17T03:18:25;19.00;1.00
3614;DHT22;1821;50.936;6.854;2023-08-17T03:19:07;19.00;1.00
3614;DHT22;1821;50.936;6.854;2023-08-17T03:19:52;18.80;1.00
3614;DHT22;1821;50.936;6.854;2023-08-17T03:20:34;18.90;1.00
3614;DHT22;1821;50.936;6.854;2023-08-17T03:21:16;19.00;1.00
3614;DHT22;1821;50.936;6.854;2023-08-17T03:21:59;18.80;1.00
3614;DHT22;1821;50.936;6.854;2023-08-17T03:22:41;18.90;1.00
3614;DHT22;1821;50.936;6.854;2023-08-17T03:23:23;18.90;1.00
3614;DHT22;1821;50.936;6.854;2023-08-17T03:24:05;18.90;1.00
3614;DHT22;1821;50.936;6.854;2023-08-17T03:24:47;18.80;1.00
3614;DHT22;1821;50.936;6.854;2023-08-17T03:25:29;18.80;1.00
3614;DHT22;1821;50.936;6.854;2023-08-17T03:26:11;18.90;1.00
3614;DHT22;1821;50.936;6.854;2023-08-17T03:26:53;18.90;1.00
3614;DHT22;1821;50.936;6.854;2023-08-17T03:27:36;18.90;1.00
3614;DHT22;1821;50.936;6.854;2023-08-17T03:28:18;18.90;1.00
3614;DHT22;1821;50.936;6.854;2023-08-17T03:29:02;18.90;1.00
3614;DHT22;1821;50.936;6.854;2023-08-17T03:29:45;18.90;1.00
3614;DHT22;1821;50.936;6.854;2023-08-17T03:30:29;18.90;1.00
3614;DHT22;1821;50.936;6.854;2023-08-17T03:31:11;18.80;1.00
3614;DHT22;1821;50.936;6.854;2023-08-17T03:31:53;18.80;1.00
3614;DHT22;1821;50.936;6.854;2023-08-17T03:32:37;18.80;1.00
3614;DHT22;1821;50.936;6.854;2023-08-17T03:33:19;18.80;1.00
3614;DHT22;1821;50.936;6.854;2023-08-17T03:34:01;18.80;1.00
3614;DHT22;1821;50.936;6.854;2023-08-17T03:34:43;18.80;1.00
3614;DHT22;1821;50.936;6.854;2023-08-17T03:35:25;18.80;1.00
3614;DHT22;1821;50.936;6.854;2023-08-17T03:36:07;18.80;1.00
3614;DHT22;1821;50.936;6.854;2023-08-17T03:36:50;18.80;1.00
3614;DHT22;1821;50.936;6.854;2023-08-17T03:37:32;18.80;1.00
3614;DHT22;1821;50.936;6.854;2023-08-17T03:38:16;18.80;1.00
3614;DHT22;1821;50.936;6.854;2023-08-17T03:38:58;18.70;1.00
3614;DHT22;1821;50.936;6.854;2023-08-17T03:39:40;18.80;1.00
3614;DHT22;1821;50.936;6.854;2023-08-17T03:40:22;18.70;1.00
3614;DHT22;1821;50.936;6.854;2023-08-17T03:41:04;18.70;1.00
3614;DHT22;1821;50.936;6.854;2023-08-17T03:41:46;18.70;1.00
3614;DHT22;1821;50.936;6.854;2023-08-17T03:42:28;18.70;1.00
3614;DHT22;1821;50.936;6.854;2023-08-17T03:43:11;18.60;1.00
3614;DHT22;1821;50.936;6.854;2023-08-17T03:43:53;18.70;1.00
3614;DHT22;1821;50.936;6.854;2023-08-17T03:44:35;18.70;1.00
3614;DHT22;1821;50.936;6.854;2023-08-17T03:45:18;18.70;1.00
3614;DHT22;1821;50.936;6.854;2023-08-17T03:46:04;18.60;1.00
3614;DHT22;1821;50.936;6.854;2023-08-17T03:46:46;18.70;1.00
3614;DHT22;1821;50.936;6.854;2023-08-17T03:47:28;18.70;1.00
3614;DHT22;1821;50.936;6.854;2023-08-17T03:48:10;18.70;1.00
3614;DHT22;1821;50.936;6.854;2023-08-17T03:48:52;18.70;1.00
3614;DHT22;1821;50.936;6.854;2023-08-17T03:49:34;18.60;1.00
3614;DHT22;1821;50.936;6.854;2023-08-17T03:50:16;18.70;1.00
3614;DHT22;1821;50.936;6.854;2023-08-17T03:50:58;18.70;1.00
3614;DHT22;1821;50.936;6.854;2023-08-17T03:51:40;18.80;1.00
3614;DHT22;1821;50.936;6.854;2023-08-17T03:52:22;18.70;1.00
3614;DHT22;1821;50.936;6.854;2023-08-17T03:53:04;18.70;1.00
3614;DHT22;1821;50.936;6.854;2023-08-17T03:53:46;18.70;1.00
3614;DHT22;1821;50.936;6.854;2023-08-17T03:54:28;18.60;1.00
3614;DHT22;1821;50.936;6.854;2023-08-17T03:55:10;18.70;1.00
3614;DHT22;1821;50.936;6.854;2023-08-17T03:55:52;18.70;1.00
3614;DHT22;1821;50.936;6.854;2023-08-17T03:56:34;18.70;1.00
3614;DHT22;1821;50.936;6.854;2023-08-17T03:57:16;18.70;1.00
3614;DHT22;1821;50.936;6.854;2023-08-17T03:57:58;18.80;1.00
3614;DHT22;1821;50.936;6.854;2023-08-17T03:58:41;18.90;1.00
3614;DHT22;1821;50.936;6.854;2023-08-17T03:59:24;18.70;1.00
3614;DHT22;1821;50.936;6.854;2023-08-17T04:00:07;18.70;1.00
3614;DHT22;1821;50.936;6.854;2023-08-17T04:00:53;18.60;1.00
3614;DHT22;1821;50.936;6.854;2023-08-17T04:01:35;18.50;1.00
3614;DHT22;1821;50.936;6.854;2023-08-17T04:02:17;18.60;1.00
3614;DHT22;1821;50.936;6.854;2023-08-17T04:03:01;18.60;1.00
3614;DHT22;1821;50.936;6.854;2023-08-17T04:03:43;18.50;1.00
3614;DHT22;1821;50.936;6.854;2023-08-17T04:04:25;18.70;1.00
3614;DHT22;1821;50.936;6.854;2023-08-17T04:05:08;18.30;1.00
3614;DHT22;1821;50.936;6.854;2023-08-17T04:05:50;18.60;1.00
3614;DHT22;1821;50.936;6.854;2023-08-17T04:06:32;18.70;1.00
3614;DHT22;1821;50.936;6.854;2023-08-17T04:07:23;18.60;1.00
3614;DHT22;1821;50.936;6.854;2023-08-17T04:08:05;18.50;1.00
3614;DHT22;1821;50.936;6.854;2023-08-17T04:08:47;18.70;1.00
3614;DHT22;1821;50.936;6.854;2023-08-17T04:09:29;18.50;1.00
3614;DHT22;1821;50.936;6.854;2023-08-17T04:10:12;18.50;1.00
3614;DHT22;1821;50.936;6.854;2023-08-17T04:10:54;18.60;1.00
3614;DHT22;1821;50.936;6.854;2023-08-17T04:11:36;18.50;1.00
3614;DHT22;1821;50.936;6.854;2023-08-17T04:12:18;18.50;1.00
3614;DHT22;1821;50.936;6.854;2023-08-17T04:13:00;18.60;1.00
3614;DHT22;1821;50.936;6.854;2023-08-17T04:13:42;18.50;1.00
3614;DHT22;1821;50.936;6.854;2023-08-17T04:14:24;18.40;1.00
3614;DHT22;1821;50.936;6.854;2023-08-17T04:15:06;18.60;1.00
3614;DHT22;1821;50.936;6.854;2023-08-17T04:15:48;18.60;1.00
3614;DHT22;1821;50.936;6.854;2023-08-17T04:16:30;18.50;1.00
3614;DHT22;1821;50.936;6.854;2023-08-17T04:17:12;18.60;1.00
3614;DHT22;1821;50.936;6.854;2023-08-17T04:17:54;18.60;1.00
3614;DHT22;1821;50.936;6.854;2023-08-17T04:18:36;18.60;1.00
3614;DHT22;1821;50.936;6.854;2023-08-17T04:19:18;18.60;1.00
3614;DHT22;1821;50.936;6.854;2023-08-17T04:20:02;18.60;1.00
3614;DHT22;1821;50.936;6.854;2023-08-17T04:20:47;18.50;1.00
3614;DHT22;1821;50.936;6.854;2023-08-17T04:21:29;18.60;1.00
3614;DHT22;1821;50.936;6.854;2023-08-17T04:22:11;18.70;1.00
3614;DHT22;1821;50.936;6.854;2023-08-17T04:22:53;18.50;1.00
3614;DHT22;1821;50.936;6.854;2023-08-17T04:23:35;18.50;1.00
3614;DHT22;1821;50.936;6.854;2023-08-17T04:24:17;18.50;1.00
3614;DHT22;1821;50.936;6.854;2023-08-17T04:24:59;18.50;1.00
3614;DHT22;1821;50.936;6.854;2023-08-17T04:25:42;18.50;1.00
3614;DHT22;1821;50.936;6.854;2023-08-17T04:26:25;18.50;1.00
3614;DHT22;1821;50.936;6.854;2023-08-17T04:27:06;18.50;1.00
3614;DHT22;1821;50.936;6.854;2023-08-17T04:27:48;18.40;1.00
3614;DHT22;1821;50.936;6.854;2023-08-17T04:28:30;18.60;1.00
3614;DHT22;1821;50.936;6.854;2023-08-17T04:29:13;18.50;1.00
3614;DHT22;1821;50.936;6.854;2023-08-17T04:29:55;18.60;1.00
3614;DHT22;1821;50.936;6.854;2023-08-17T04:30:37;18.60;1.00
3614;DHT22;1821;50.936;6.854;2023-08-17T04:31:19;18.50;1.00
3614;DHT22;1821;50.936;6.854;2023-08-17T04:32:02;18.50;1.00
3614;DHT22;1821;50.936;6.854;2023-08-17T04:32:46;18.50;1.00
3614;DHT22;1821;50.936;6.854;2023-08-17T04:33:34;18.50;1.00
3614;DHT22;1821;50.936;6.854;2023-08-17T04:34:15;18.50;1.00
3614;DHT22;1821;50.936;6.854;2023-08-17T04:34:57;18.50;1.00
3614;DHT22;1821;50.936;6.854;2023-08-17T04:35:39;18.50;1.00
3614;DHT22;1821;50.936;6.854;2023-08-17T04:36:21;18.50;1.00
3614;DHT22;1821;50.936;6.854;2023-08-17T04:37:03;18.50;1.00
3614;DHT22;1821;50.936;6.854;2023-08-17T04:37:45;18.50;1.00
3614;DHT22;1821;50.936;6.854;2023-08-17T04:38:28;18.50;1.00
3614;DHT22;1821;50.936;6.854;2023-08-17T04:39:10;18.50;1.00
3614;DHT22;1821;50.936;6.854;2023-08-17T04:39:53;18.50;1.00
3614;DHT22;1821;50.936;6.854;2023-08-17T04:40:37;18.40;1.00
3614;DHT22;1821;50.936;6.854;2023-08-17T04:41:19;18.50;1.00
3614;DHT22;1821;50.936;6.854;2023-08-17T04:42:03;18.40;1.00
3614;DHT22;1821;50.936;6.854;2023-08-17T04:42:45;18.50;1.00
3614;DHT22;1821;50.936;6.854;2023-08-17T04:43:29;18.40;1.00
3614;DHT22;1821;50.936;6.854;2023-08-17T04:44:11;18.40;1.00
3614;DHT22;1821;50.936;6.854;2023-08-17T04:44:53;18.40;1.00
3614;DHT22;1821;50.936;6.854;2023-08-17T04:45:35;18.40;1.00
3614;DHT22;1821;50.936;6.854;2023-08-17T04:46:17;18.30;1.00
3614;DHT22;1821;50.936;6.854;2023-08-17T04:46:59;18.20;1.00
3614;DHT22;1821;50.936;6.854;2023-08-17T04:47:41;18.40;1.00
3614;DHT22;1821;50.936;6.854;2023-08-17T04:48:23;18.30;1.00
3614;DHT22;1821;50.936;6.854;2023-08-17T04:49:05;18.40;1.00
3614;DHT22;1821;50.936;6.854;2023-08-17T04:49:47;18.40;1.00
3614;DHT22;1821;50.936;6.854;2023-08-17T04:50:29;18.30;1.00
3614;DHT22;1821;50.936;6.854;2023-08-17T04:51:11;18.40;1.00
3614;DHT22;1821;50.936;6.854;2023-08-17T04:51:56;18.40;1.00